LEZG/ZAZ METAR and TAF weather

Enter ICAO airport designator
Station Type Date Time Source
LEZG METAR 2021/05/15 02:30 UTC NOAA

LEZG 150230Z 09006KT CAVOK 13/09 Q1014


Station Type Date Time Source
LEZG Decoded METAR 2021/05/15 02:30 UTC NOAA

Zaragoza / Aeropuerto, Spain (LEZG) 41-40N 001-01W 258M
May 14, 2021 - 10:30 PM EDT / 2021.05.15 0230 UTC
Wind: from the E (090 degrees) at 7 MPH (6 KT):0
Visibility: greater than 7 mile(s):0
Temperature: 55 F (13 C)
Dew Point: 48 F (9 C)
Relative Humidity: 76%
Pressure (altimeter): 29.94 in. Hg (1014 hPa)
ob: LEZG 150230Z 09006KT CAVOK 13/09 Q1014
cycle: 2

Station Type Date Time Source
LEZG TAF 2021/05/14 18:27 UTC NOAA

TAF LEZG 141700Z 1418/1518 31009KT 9999 FEW040 TX30/1514Z TN13/1506Z
BECMG 1418/1420 VRB04KT
BECMG 1512/1514 31012KT
TEMPO 1514/1518 29020G30KT

Example: see airport list